createdAt,value
2023-01-11T00:00:56.917Z,2.57
2023-01-11T00:03:24.189Z,2.58
2023-01-11T00:05:55.832Z,2.61
2023-01-11T00:08:24.460Z,2.61
2023-01-11T00:10:51.807Z,2.60
2023-01-11T00:13:19.218Z,2.60
2023-01-11T00:15:46.253Z,2.59
2023-01-11T00:18:13.185Z,2.61
2023-01-11T00:20:41.768Z,2.62
2023-01-11T00:23:08.790Z,2.65
2023-01-11T00:25:36.292Z,2.64
2023-01-11T00:28:03.847Z,2.62
2023-01-11T00:30:30.775Z,2.60
2023-01-11T00:33:00.064Z,2.60
2023-01-11T00:35:29.660Z,2.59
2023-01-11T00:37:56.892Z,2.55
2023-01-11T00:40:24.337Z,2.58
2023-01-11T00:43:10.074Z,2.58
2023-01-11T00:45:56.176Z,2.56
2023-01-11T00:48:23.263Z,2.57
2023-01-11T00:50:55.151Z,2.54
2023-01-11T00:53:22.138Z,2.53
2023-01-11T00:55:49.139Z,2.51
2023-01-11T00:58:16.316Z,2.49
2023-01-11T01:00:43.326Z,2.51
2023-01-11T01:03:10.635Z,2.54
2023-01-11T01:05:39.437Z,2.56
2023-01-11T01:08:07.063Z,2.59
2023-01-11T01:10:34.155Z,2.62
2023-01-11T01:13:19.555Z,2.63
2023-01-11T01:15:46.621Z,2.68
2023-01-11T01:18:13.617Z,2.68
2023-01-11T01:20:40.901Z,2.67
2023-01-11T01:23:07.936Z,2.66
2023-01-11T01:25:37.793Z,2.63
2023-01-11T01:28:05.034Z,2.63
2023-01-11T01:30:31.971Z,2.61
2023-01-11T01:32:59.217Z,2.59
2023-01-11T01:35:26.165Z,2.53
2023-01-11T01:37:53.671Z,2.51
2023-01-11T01:40:21.835Z,2.50
2023-01-11T01:42:54.612Z,2.50
2023-01-11T01:45:28.510Z,2.48
2023-01-11T01:48:01.884Z,2.46
2023-01-11T01:50:38.665Z,2.39
2023-01-11T01:53:17.135Z,2.30
2023-01-11T01:55:49.535Z,2.19
2023-01-11T01:58:21.305Z,2.08
2023-01-11T02:00:48.591Z,2.00
2023-01-11T02:03:22.928Z,1.94
2023-01-11T02:05:52.331Z,1.92
2023-01-11T02:08:31.460Z,1.88
2023-01-11T02:10:59.443Z,1.89
2023-01-11T02:13:27.201Z,1.91
2023-01-11T02:16:08.425Z,1.94
2023-01-11T02:18:37.207Z,1.87
2023-01-11T02:21:25.414Z,1.80
2023-01-11T02:24:26.333Z,1.72
2023-01-11T02:27:14.184Z,1.66
2023-01-11T02:30:06.413Z,1.65
2023-01-11T02:33:49.755Z,1.67
2023-01-11T02:36:53.910Z,1.71
2023-01-11T02:39:45.554Z,1.76
2023-01-11T02:42:37.600Z,1.83
2023-01-11T02:46:02.148Z,1.89
2023-01-11T02:48:51.904Z,1.92
2023-01-11T02:51:41.307Z,1.91
2023-01-11T02:54:11.717Z,1.92
2023-01-11T02:56:43.893Z,1.91
2023-01-11T02:59:24.759Z,1.89
2023-01-11T03:01:55.820Z,1.89
2023-01-11T03:04:25.812Z,1.87
2023-01-11T03:07:23.689Z,1.87
2023-01-11T03:09:57.005Z,1.89
2023-01-11T03:13:00.655Z,1.88
2023-01-11T03:15:57.149Z,1.88
2023-01-11T03:19:09.560Z,1.88
2023-01-11T03:21:54.617Z,1.88
2023-01-11T03:25:07.331Z,1.87
2023-01-11T03:28:04.620Z,1.82
2023-01-11T03:30:56.663Z,1.78
2023-01-11T03:33:46.779Z,1.73
2023-01-11T03:36:33.429Z,1.70
2023-01-11T03:39:34.416Z,1.69
2023-01-11T03:42:05.622Z,1.70
2023-01-11T03:44:40.587Z,1.72
2023-01-11T03:47:12.541Z,1.80
2023-01-11T03:49:50.550Z,1.86
2023-01-11T03:52:25.685Z,1.93
2023-01-11T03:54:55.662Z,2.02
2023-01-11T03:57:37.035Z,2.12
2023-01-11T04:00:06.892Z,2.16
2023-01-11T04:02:39.544Z,2.21
2023-01-11T04:05:08.568Z,2.21
2023-01-11T04:07:35.913Z,2.21
2023-01-11T04:10:03.884Z,2.20
2023-01-11T04:12:30.789Z,2.16
2023-01-11T04:14:57.992Z,2.12
2023-01-11T04:17:24.856Z,2.08
2023-01-11T04:19:52.006Z,2.04
2023-01-11T04:22:18.991Z,1.98
2023-01-11T04:24:46.039Z,1.92
2023-01-11T04:27:13.185Z,1.87
2023-01-11T04:29:40.429Z,1.86
2023-01-11T04:32:07.446Z,1.81
2023-01-11T04:34:34.621Z,1.81
2023-01-11T04:37:01.844Z,1.80
2023-01-11T04:39:28.909Z,1.76
2023-01-11T04:42:14.121Z,1.72
2023-01-11T04:44:41.302Z,1.67
2023-01-11T04:47:08.763Z,1.64
2023-01-11T04:49:35.687Z,1.63
2023-01-11T04:52:02.667Z,1.66
2023-01-11T04:54:29.633Z,1.68
2023-01-11T04:56:58.179Z,1.72
2023-01-11T04:59:25.371Z,1.76
2023-01-11T05:01:52.329Z,1.79
2023-01-11T05:04:19.629Z,1.85
2023-01-11T05:06:47.044Z,1.89
2023-01-11T05:09:17.645Z,1.96
2023-01-11T05:11:45.204Z,1.98
2023-01-11T05:14:12.975Z,2.02
2023-01-11T05:16:39.948Z,2.00
2023-01-11T05:19:07.298Z,1.93
2023-01-11T05:21:37.095Z,1.81
2023-01-11T05:24:06.972Z,1.72
2023-01-11T05:26:37.713Z,1.71
2023-01-11T05:29:11.632Z,1.69
2023-01-11T05:31:40.733Z,1.69
2023-01-11T05:34:10.601Z,1.70
2023-01-11T05:36:37.633Z,1.69
2023-01-11T05:39:06.067Z,1.67
2023-01-11T05:41:33.537Z,1.67
2023-01-11T05:44:19.032Z,1.63
2023-01-11T05:46:46.094Z,1.58
2023-01-11T05:49:15.049Z,1.56
2023-01-11T05:51:43.248Z,1.54
2023-01-11T05:54:14.212Z,1.54
2023-01-11T05:56:44.992Z,1.54
2023-01-11T05:59:12.413Z,1.54
2023-01-11T06:01:39.739Z,1.58
2023-01-11T06:04:08.398Z,1.58
2023-01-11T06:06:36.136Z,1.57
2023-01-11T06:09:03.429Z,1.57
2023-01-11T06:11:30.785Z,1.57
2023-01-11T06:13:57.838Z,1.58
2023-01-11T06:16:24.938Z,1.62
2023-01-11T06:18:53.623Z,1.67
2023-01-11T06:21:21.552Z,1.74
2023-01-11T06:23:53.197Z,1.83
2023-01-11T06:26:23.086Z,1.90
2023-01-11T06:28:51.178Z,1.99
2023-01-11T06:31:19.146Z,2.10
2023-01-11T06:33:47.168Z,2.20
2023-01-11T06:36:15.886Z,2.34
2023-01-11T06:38:44.177Z,2.46
2023-01-11T06:41:12.595Z,2.54
2023-01-11T06:43:42.405Z,2.65
2023-01-11T06:46:14.776Z,2.69
2023-01-11T06:48:42.623Z,2.80
2023-01-11T06:51:13.345Z,2.87
2023-01-11T06:53:45.900Z,2.96
2023-01-11T06:56:17.369Z,3.02
2023-01-11T06:58:46.930Z,3.09
2023-01-11T07:01:15.195Z,3.17
2023-01-11T07:03:42.530Z,3.24
2023-01-11T07:06:09.632Z,3.31
2023-01-11T07:08:38.192Z,3.36
2023-01-11T07:11:05.377Z,3.41
2023-01-11T07:13:32.490Z,3.47
2023-01-11T07:15:59.671Z,3.53
2023-01-11T07:18:26.636Z,3.59
2023-01-11T07:20:53.742Z,3.63
2023-01-11T07:23:20.857Z,3.68
2023-01-11T07:25:49.977Z,3.73
2023-01-11T07:28:17.091Z,3.79
2023-01-11T07:30:57.581Z,3.84
2023-01-11T07:33:26.247Z,3.90
2023-01-11T07:35:53.420Z,3.97
2023-01-11T07:38:20.607Z,4.04
2023-01-11T07:40:47.756Z,4.10
2023-01-11T07:43:15.479Z,4.16
2023-01-11T07:45:47.862Z,4.25
2023-01-11T07:48:20.740Z,4.36
2023-01-11T07:50:48.905Z,4.44
2023-01-11T07:53:16.433Z,4.52
2023-01-11T07:55:43.520Z,4.61
2023-01-11T07:58:12.968Z,4.72
2023-01-11T08:00:41.153Z,4.82
2023-01-11T08:03:09.018Z,4.91
2023-01-11T08:05:36.380Z,4.99
2023-01-11T08:08:04.438Z,5.07
2023-01-11T08:10:31.602Z,5.14
2023-01-11T08:13:17.480Z,5.19
2023-01-11T08:15:44.868Z,5.27
2023-01-11T08:18:14.075Z,5.33
2023-01-11T08:20:41.673Z,5.39
2023-01-11T08:23:10.370Z,5.40
2023-01-11T08:25:38.239Z,5.46
2023-01-11T08:28:07.267Z,5.51
2023-01-11T08:30:36.621Z,5.57
2023-01-11T08:33:06.814Z,5.61
2023-01-11T08:35:39.135Z,5.69
2023-01-11T08:38:06.788Z,5.77
2023-01-11T08:40:34.325Z,5.86
2023-01-11T08:43:01.543Z,5.99
2023-01-11T08:45:29.173Z,6.11
2023-01-11T08:47:56.657Z,6.24
2023-01-11T08:50:23.689Z,6.38
2023-01-11T08:52:51.924Z,6.54
2023-01-11T08:55:20.044Z,6.63
2023-01-11T08:57:47.825Z,6.67
2023-01-11T09:00:15.656Z,6.69
2023-01-11T09:02:45.140Z,6.67
2023-01-11T09:05:12.348Z,6.64
2023-01-11T09:07:39.511Z,6.63
2023-01-11T09:10:07.263Z,6.71
2023-01-11T09:12:34.728Z,6.82
2023-01-11T09:15:02.395Z,6.98
2023-01-11T09:17:29.309Z,7.20
2023-01-11T09:19:56.476Z,7.46
2023-01-11T09:22:23.751Z,7.76
2023-01-11T09:24:50.784Z,8.03
2023-01-11T09:27:18.235Z,8.23
2023-01-11T09:29:46.177Z,8.46
2023-01-11T09:32:13.254Z,8.64
2023-01-11T09:34:41.835Z,8.81
2023-01-11T09:37:09.127Z,8.97
2023-01-11T09:39:37.219Z,9.14
2023-01-11T09:42:19.364Z,9.27
2023-01-11T09:45:15.925Z,9.36
2023-01-11T09:47:52.530Z,9.50
2023-01-11T09:50:32.658Z,9.59
2023-01-11T09:53:04.996Z,9.61
2023-01-11T09:55:43.401Z,9.60
2023-01-11T09:58:50.988Z,9.57
2023-01-11T10:01:40.230Z,9.56
2023-01-11T10:04:47.764Z,9.53
2023-01-11T10:07:49.666Z,9.50
2023-01-11T10:18:22.627Z,9.49
2023-01-11T10:18:33.349Z,9.54
2023-01-11T10:20:37.879Z,9.53
2023-01-11T10:23:47.531Z,9.53
2023-01-11T10:26:36.378Z,9.55
2023-01-11T10:30:07.195Z,9.63
2023-01-11T10:32:45.870Z,9.65
2023-01-11T10:36:06.044Z,9.73
2023-01-11T10:38:58.915Z,9.81
2023-01-11T10:41:38.632Z,9.83
2023-01-11T10:44:19.259Z,9.93
2023-01-11T10:46:53.222Z,10.05
2023-01-11T10:49:44.907Z,10.18
2023-01-11T10:52:44.451Z,10.36
2023-01-11T10:55:25.921Z,10.56
2023-01-11T10:58:07.122Z,10.78
2023-01-11T11:00:58.718Z,10.99
2023-01-11T11:04:00.663Z,11.16
2023-01-11T11:06:38.164Z,11.25
2023-01-11T11:09:42.653Z,11.34
2023-01-11T11:12:26.128Z,11.42
2023-01-11T11:15:29.511Z,11.53
2023-01-11T11:17:56.997Z,11.62
2023-01-11T11:20:29.845Z,11.66
2023-01-11T11:22:57.635Z,11.68
2023-01-11T11:25:38.301Z,11.72
2023-01-11T11:28:32.582Z,11.77
2023-01-11T11:31:05.726Z,11.79
2023-01-11T11:33:40.347Z,11.84
2023-01-11T11:36:11.090Z,11.87
2023-01-11T11:38:41.462Z,11.91
2023-01-11T11:41:17.186Z,11.92
2023-01-11T11:43:47.625Z,11.94
2023-01-11T11:46:18.837Z,11.96
2023-01-11T11:49:15.949Z,11.90
2023-01-11T11:51:46.120Z,11.88
2023-01-11T11:54:37.633Z,11.84
2023-01-11T11:57:35.863Z,11.79
2023-01-11T12:00:09.293Z,11.80
2023-01-11T12:02:50.362Z,11.82
2023-01-11T12:05:17.668Z,11.85
2023-01-11T12:07:55.166Z,11.90
2023-01-11T12:10:28.653Z,11.89
2023-01-11T12:13:02.149Z,11.96
2023-01-11T12:15:34.223Z,11.93
2023-01-11T12:18:37.674Z,11.92
2023-01-11T12:21:25.005Z,11.94
2023-01-11T12:24:23.008Z,11.98
2023-01-11T12:27:00.950Z,12.05
2023-01-11T12:30:01.831Z,12.14
2023-01-11T12:32:59.737Z,12.21
2023-01-11T12:35:40.805Z,12.24
2023-01-11T12:38:39.624Z,12.28
2023-01-11T12:41:51.546Z,12.33
2023-01-11T12:44:49.016Z,12.37
2023-01-11T12:47:40.695Z,12.36
2023-01-11T12:50:25.020Z,12.38
2023-01-11T12:53:27.231Z,12.39
2023-01-11T12:56:28.388Z,12.37
2023-01-11T12:59:04.940Z,12.33
2023-01-11T13:01:45.955Z,12.32
2023-01-11T13:04:33.509Z,12.29
2023-01-11T13:07:30.457Z,12.22
2023-01-11T13:10:09.613Z,12.16
2023-01-11T13:12:50.666Z,12.13
2023-01-11T13:15:46.632Z,12.08
2023-01-11T13:19:01.450Z,12.01
2023-01-11T13:21:44.643Z,11.96
2023-01-11T13:24:18.598Z,11.93
2023-01-11T13:26:50.491Z,11.87
2023-01-11T13:29:29.464Z,11.82
2023-01-11T13:32:01.303Z,11.79
2023-01-11T13:34:38.813Z,11.72
2023-01-11T13:37:17.906Z,11.63
2023-01-11T13:40:13.178Z,11.57
2023-01-11T13:42:47.588Z,11.51
2023-01-11T13:45:21.855Z,11.47
2023-01-11T13:47:57.100Z,11.43
2023-01-11T13:50:37.810Z,11.38
2023-01-11T13:57:34.273Z,11.20
2023-01-11T14:00:19.520Z,11.16
2023-01-11T14:02:59.333Z,11.12
2023-01-11T14:05:35.623Z,11.11
2023-01-11T14:08:25.712Z,11.05
2023-01-11T14:11:42.000Z,11.01
2023-01-11T14:14:46.430Z,10.99
2023-01-11T14:18:05.638Z,10.94
2023-01-11T14:20:40.848Z,10.89
2023-01-11T14:23:20.569Z,10.86
2023-01-11T14:26:21.603Z,10.83
2023-01-11T14:28:59.389Z,10.80
2023-01-11T14:44:29.584Z,10.30
2023-01-11T14:47:18.084Z,10.23
2023-01-11T14:50:06.008Z,10.19
2023-01-11T14:52:40.701Z,10.15
2023-01-11T14:55:30.633Z,10.11
2023-01-11T14:58:03.233Z,10.12
2023-01-11T15:00:30.030Z,10.08
2023-01-11T15:02:59.595Z,10.08
2023-01-11T15:05:38.300Z,10.02
2023-01-11T15:08:14.260Z,9.99
2023-01-11T15:11:01.753Z,9.93
2023-01-11T15:13:44.624Z,9.86
2023-01-11T15:16:44.812Z,9.80
2023-01-11T15:19:33.857Z,9.68
2023-01-11T15:22:04.542Z,9.60
2023-01-11T15:24:39.851Z,9.53
2023-01-11T15:27:07.146Z,9.47
2023-01-11T15:29:46.044Z,9.39
2023-01-11T15:32:34.869Z,9.33
2023-01-11T15:35:26.799Z,9.28
2023-01-11T15:38:17.471Z,9.24
2023-01-11T15:40:50.173Z,9.20
2023-01-11T15:43:48.565Z,9.20
2023-01-11T15:46:55.194Z,9.17
2023-01-11T15:49:34.159Z,9.21
2023-01-11T15:52:31.375Z,9.24
2023-01-11T15:55:41.652Z,9.26
2023-01-11T15:58:31.803Z,9.28
2023-01-11T16:01:20.200Z,9.31
2023-01-11T16:04:05.395Z,9.34
2023-01-11T16:06:53.769Z,9.37
2023-01-11T16:09:43.412Z,9.38
2023-01-11T16:12:19.350Z,9.39
2023-01-11T16:15:38.486Z,9.38
2023-01-11T16:18:20.467Z,9.35
2023-01-11T16:21:21.649Z,9.35
2023-01-11T16:23:49.357Z,9.36
2023-01-11T16:26:20.316Z,9.35
2023-01-11T16:28:56.855Z,9.34
2023-01-11T16:31:25.486Z,9.34
2023-01-11T16:33:53.335Z,9.33
2023-01-11T16:36:23.415Z,9.34
2023-01-11T16:39:11.126Z,9.34
2023-01-11T16:41:46.911Z,9.35
2023-01-11T16:44:41.805Z,9.37
2023-01-11T16:47:16.898Z,9.43
2023-01-11T16:49:49.996Z,9.48
2023-01-11T16:52:31.256Z,9.52
2023-01-11T16:55:02.058Z,9.56
2023-01-11T16:57:36.293Z,9.61
2023-01-11T17:00:32.432Z,9.64
2023-01-11T17:03:24.165Z,9.67
2023-01-11T17:06:03.040Z,9.71
2023-01-11T17:08:34.829Z,9.76
2023-01-11T17:11:42.294Z,9.82
2023-01-11T17:14:30.841Z,9.85
2023-01-11T17:17:02.492Z,9.89
2023-01-11T17:19:43.129Z,9.93
2023-01-11T17:22:29.889Z,9.97
2023-01-11T17:25:14.548Z,9.99
2023-01-11T17:27:50.890Z,10.02
2023-01-11T17:30:23.010Z,10.05
2023-01-11T17:32:53.728Z,10.08
2023-01-11T17:35:30.808Z,10.08
2023-01-11T17:38:08.103Z,10.10
2023-01-11T17:40:38.967Z,10.09
2023-01-11T17:43:28.826Z,10.09
2023-01-11T17:45:58.205Z,10.10
2023-01-11T17:48:27.400Z,10.12
2023-01-11T17:51:01.016Z,10.11
2023-01-11T17:53:36.240Z,10.10
2023-01-11T17:56:33.045Z,10.09
2023-01-11T17:59:11.899Z,10.08
2023-01-11T18:01:39.033Z,10.09
2023-01-11T18:04:05.972Z,10.07
2023-01-11T18:06:39.980Z,10.07
2023-01-11T18:09:28.489Z,10.05
2023-01-11T18:12:25.993Z,10.02
2023-01-11T18:15:02.957Z,10.00
2023-01-11T18:17:32.800Z,9.98
2023-01-11T18:20:00.914Z,9.96
2023-01-11T18:22:37.407Z,9.94
2023-01-11T18:25:22.399Z,9.91
2023-01-11T18:27:50.176Z,9.90
2023-01-11T18:30:32.067Z,9.89
2023-01-11T18:33:04.465Z,9.91
2023-01-11T18:35:31.385Z,9.91
2023-01-11T18:37:58.247Z,9.90
2023-01-11T18:40:25.213Z,9.91
2023-01-11T18:42:53.715Z,9.93
2023-01-11T18:45:21.841Z,9.93
2023-01-11T18:47:48.716Z,9.94
2023-01-11T18:50:18.146Z,9.92
2023-01-11T18:52:46.366Z,9.89
2023-01-11T18:55:14.637Z,9.85
2023-01-11T18:57:42.504Z,9.81
2023-01-11T19:00:14.419Z,9.77
2023-01-11T19:02:43.749Z,9.73
2023-01-11T19:05:14.803Z,9.69
2023-01-11T19:07:42.104Z,9.63
2023-01-11T19:10:13.699Z,9.65
2023-01-11T19:12:41.222Z,9.58
2023-01-11T19:15:08.834Z,9.56
2023-01-11T19:17:35.746Z,9.56
2023-01-11T19:20:03.183Z,9.54
2023-01-11T19:22:30.084Z,9.53
2023-01-11T19:24:57.033Z,9.53
2023-01-11T19:27:23.947Z,9.54
2023-01-11T19:29:52.611Z,9.56
2023-01-11T19:32:24.958Z,9.55
2023-01-11T19:34:53.221Z,9.54
2023-01-11T19:37:20.706Z,9.53
2023-01-11T19:39:47.679Z,9.52
2023-01-11T19:42:14.671Z,9.55
2023-01-11T19:44:41.628Z,9.56
2023-01-11T19:47:13.384Z,9.56
2023-01-11T19:49:41.776Z,9.54
2023-01-11T19:52:14.472Z,9.56
2023-01-11T19:54:43.361Z,9.56
2023-01-11T19:57:15.281Z,9.56
2023-01-11T19:59:42.531Z,9.57
2023-01-11T20:02:12.923Z,9.56
2023-01-11T20:04:40.387Z,9.57
2023-01-11T20:07:09.159Z,9.57
2023-01-11T20:09:39.297Z,9.57
2023-01-11T20:12:08.249Z,9.57
2023-01-11T20:14:36.409Z,9.56
2023-01-11T20:17:03.446Z,9.53
2023-01-11T20:19:30.557Z,9.54
2023-01-11T20:21:57.612Z,9.55
2023-01-11T20:24:33.556Z,9.57
2023-01-11T20:27:03.461Z,9.56
2023-01-11T20:29:30.630Z,9.55
2023-01-11T20:32:13.395Z,9.56
2023-01-11T20:34:44.795Z,9.54
2023-01-11T20:37:11.726Z,9.55
2023-01-11T20:39:38.646Z,9.55
2023-01-11T20:42:05.564Z,9.55
2023-01-11T20:44:32.458Z,9.53
2023-01-11T20:47:00.094Z,9.52
2023-01-11T20:49:29.231Z,9.52
2023-01-11T20:51:56.602Z,9.54
2023-01-11T20:54:23.698Z,9.52
2023-01-11T20:56:50.796Z,9.53
2023-01-11T20:59:19.957Z,9.48
2023-01-11T21:01:49.295Z,9.48
2023-01-11T21:04:17.773Z,9.48
2023-01-11T21:06:50.366Z,9.49
2023-01-11T21:09:18.178Z,9.49
2023-01-11T21:11:52.337Z,9.49
2023-01-11T21:14:20.083Z,9.48
2023-01-11T21:16:47.000Z,9.47
2023-01-11T21:19:15.582Z,9.47
2023-01-11T21:21:42.609Z,9.47
2023-01-11T21:24:13.105Z,9.44
2023-01-11T21:26:41.957Z,9.44
2023-01-11T21:29:10.455Z,9.43
2023-01-11T21:31:38.243Z,9.41
2023-01-11T21:34:05.603Z,9.38
2023-01-11T21:36:32.922Z,9.39
2023-01-11T21:39:00.608Z,9.39
2023-01-11T21:41:49.221Z,9.40
2023-01-11T21:44:18.004Z,9.39
2023-01-11T21:46:45.780Z,9.37
2023-01-11T21:49:13.959Z,9.36
2023-01-11T21:51:42.195Z,9.35
2023-01-11T21:54:13.510Z,9.32
2023-01-11T21:56:41.841Z,9.32
2023-01-11T21:59:09.234Z,9.34
2023-01-11T22:01:38.023Z,9.34
2023-01-11T22:04:14.266Z,9.33
2023-01-11T22:06:47.184Z,9.30
2023-01-11T22:09:14.173Z,9.33
2023-01-11T22:11:41.047Z,9.34
2023-01-11T22:14:08.784Z,9.35
2023-01-11T22:16:36.987Z,9.34
2023-01-11T22:19:07.257Z,9.34
2023-01-11T22:21:35.557Z,9.36
2023-01-11T22:24:03.012Z,9.35
2023-01-11T22:26:33.281Z,9.36
2023-01-11T22:29:12.624Z,9.36
2023-01-11T22:31:42.165Z,9.33
2023-01-11T22:34:10.315Z,9.33
2023-01-11T22:36:37.885Z,9.34
2023-01-11T22:39:04.917Z,9.36
2023-01-11T22:41:32.223Z,9.34
2023-01-11T22:43:59.152Z,9.37
2023-01-11T22:46:27.392Z,9.34
2023-01-11T22:48:54.455Z,9.34
2023-01-11T22:51:24.876Z,9.36
2023-01-11T22:53:53.190Z,9.35
2023-01-11T22:56:24.796Z,9.37
2023-01-11T22:58:54.017Z,9.32
2023-01-11T23:01:24.914Z,9.31
2023-01-11T23:03:53.383Z,9.29
2023-01-11T23:06:30.450Z,9.26
2023-01-11T23:08:58.675Z,9.26
2023-01-11T23:11:48.163Z,9.24
2023-01-11T23:14:18.425Z,9.23
2023-01-11T23:16:47.290Z,9.26
2023-01-11T23:19:18.109Z,9.27
2023-01-11T23:21:46.775Z,9.30
2023-01-11T23:24:16.003Z,9.28
2023-01-11T23:26:43.488Z,9.26
2023-01-11T23:29:10.532Z,9.25
2023-01-11T23:31:37.672Z,9.21
2023-01-11T23:34:06.949Z,9.15
2023-01-11T23:36:38.075Z,9.07
2023-01-11T23:39:07.776Z,9.03
2023-01-11T23:41:54.128Z,8.99
2023-01-11T23:44:22.331Z,8.93
2023-01-11T23:47:08.958Z,8.88
2023-01-11T23:49:36.143Z,8.84
2023-01-11T23:52:03.314Z,8.79
2023-01-11T23:54:32.651Z,8.74
2023-01-11T23:57:01.224Z,8.70
2023-01-11T23:59:28.304Z,8.68
